createdAt,value
2017-10-16T00:02:19.175Z,12.70
2017-10-16T00:04:46.768Z,12.90
2017-10-16T00:07:14.338Z,12.90
2017-10-16T00:09:41.934Z,12.80
2017-10-16T00:12:10.283Z,13.00
2017-10-16T00:14:37.870Z,13.00
2017-10-16T00:17:06.342Z,12.50
2017-10-16T00:19:34.693Z,12.40
2017-10-16T00:22:02.279Z,12.40
2017-10-16T00:24:30.727Z,12.10
2017-10-16T00:26:58.307Z,12.10
2017-10-16T00:29:25.920Z,12.00
2017-10-16T00:31:53.485Z,12.00
2017-10-16T00:34:21.080Z,11.90
2017-10-16T00:36:48.666Z,12.00
2017-10-16T00:39:17.026Z,11.90
2017-10-16T00:41:45.391Z,11.90
2017-10-16T00:44:13.093Z,11.90
2017-10-16T00:46:40.839Z,11.90
2017-10-16T00:49:09.191Z,12.00
2017-10-16T00:51:36.811Z,12.00
2017-10-16T00:54:04.380Z,12.00
2017-10-16T00:56:32.068Z,11.80
2017-10-16T00:58:59.655Z,11.70
2017-10-16T01:01:27.990Z,11.60
2017-10-16T01:03:55.578Z,11.50
2017-10-16T01:06:23.903Z,11.80
2017-10-16T01:08:51.496Z,11.80
2017-10-16T01:11:19.055Z,11.90
2017-10-16T01:13:46.647Z,12.00
2017-10-16T01:16:14.982Z,12.10
2017-10-16T01:18:42.579Z,12.00
2017-10-16T01:21:10.953Z,12.10
2017-10-16T01:23:38.540Z,12.10
2017-10-16T01:26:06.147Z,12.10
2017-10-16T01:28:33.716Z,12.00
2017-10-16T01:31:01.307Z,12.10
2017-10-16T01:33:28.879Z,12.00
2017-10-16T01:35:56.470Z,11.90
2017-10-16T01:38:24.043Z,11.80
2017-10-16T01:40:52.580Z,11.60
2017-10-16T01:43:20.177Z,11.60
2017-10-16T01:45:47.843Z,11.60
2017-10-16T01:48:16.175Z,11.50
2017-10-16T01:50:43.780Z,11.50
2017-10-16T01:53:11.498Z,11.60
2017-10-16T01:55:39.086Z,11.50
2017-10-16T01:58:06.665Z,11.40
2017-10-16T02:00:34.267Z,11.40
2017-10-16T02:03:01.844Z,11.40
2017-10-16T02:05:29.448Z,11.40
2017-10-16T02:07:57.020Z,11.30
2017-10-16T02:10:25.375Z,11.50
2017-10-16T02:12:53.052Z,11.40
2017-10-16T02:15:21.461Z,11.40
2017-10-16T02:17:49.050Z,11.40
2017-10-16T02:20:16.643Z,11.30
2017-10-16T02:22:45.003Z,11.20
2017-10-16T02:25:12.787Z,11.10
2017-10-16T02:27:41.152Z,11.10
2017-10-16T02:30:08.752Z,11.10
2017-10-16T02:32:36.309Z,11.10
2017-10-16T02:35:03.948Z,11.10
2017-10-16T02:37:32.292Z,11.20
2017-10-16T02:39:59.876Z,11.10
2017-10-16T02:42:28.214Z,11.10
2017-10-16T02:44:55.824Z,11.00
2017-10-16T02:47:23.416Z,11.10
2017-10-16T02:49:51.020Z,11.00
2017-10-16T02:52:19.425Z,10.90
2017-10-16T02:54:47.115Z,10.90
2017-10-16T02:57:14.689Z,11.00
2017-10-16T02:59:42.299Z,10.90
2017-10-16T03:02:09.871Z,10.90
2017-10-16T03:04:37.471Z,10.90
2017-10-16T03:07:05.060Z,11.00
2017-10-16T03:09:33.416Z,10.90
2017-10-16T03:12:00.984Z,10.90
2017-10-16T03:14:29.351Z,10.80
2017-10-16T03:16:57.033Z,10.80
2017-10-16T03:19:24.628Z,10.80
2017-10-16T03:21:52.237Z,10.80
2017-10-16T03:24:21.324Z,11.00
2017-10-16T03:26:48.924Z,11.00
2017-10-16T03:29:16.496Z,10.90
2017-10-16T03:31:44.057Z,10.90
2017-10-16T03:34:11.647Z,10.90
2017-10-16T03:36:39.212Z,10.80
2017-10-16T03:39:06.803Z,10.90
2017-10-16T03:41:35.140Z,10.90
2017-10-16T03:44:02.739Z,10.80
2017-10-16T03:46:31.071Z,10.80
2017-10-16T03:48:58.679Z,10.80
2017-10-16T03:51:27.042Z,11.00
2017-10-16T03:53:55.380Z,11.00
2017-10-16T03:56:22.989Z,10.90
2017-10-16T03:58:51.328Z,10.70
2017-10-16T04:01:18.938Z,10.70
2017-10-16T04:03:46.612Z,10.70
2017-10-16T04:06:14.242Z,10.60
2017-10-16T04:08:42.703Z,10.60
2017-10-16T04:11:10.292Z,10.50
2017-10-16T04:13:37.908Z,10.70
2017-10-16T04:16:05.488Z,10.80
2017-10-16T04:18:33.059Z,10.70
2017-10-16T04:21:01.579Z,10.60
2017-10-16T04:23:29.211Z,10.60
2017-10-16T04:25:56.822Z,10.50
2017-10-16T04:28:24.423Z,10.50
2017-10-16T04:30:52.756Z,10.80
2017-10-16T04:33:20.449Z,10.80
2017-10-16T04:35:48.788Z,10.50
2017-10-16T04:38:16.391Z,10.50
2017-10-16T04:40:44.736Z,10.40
2017-10-16T04:43:13.110Z,10.40
2017-10-16T04:45:40.703Z,10.30
2017-10-16T04:48:09.064Z,10.30
2017-10-16T04:50:37.460Z,10.30
2017-10-16T04:53:05.800Z,10.50
2017-10-16T04:55:33.400Z,10.50
2017-10-16T04:58:01.726Z,10.70
2017-10-16T05:00:29.334Z,10.70
2017-10-16T05:02:57.700Z,10.80
2017-10-16T05:05:26.095Z,10.80
2017-10-16T05:07:53.667Z,10.80
2017-10-16T05:10:21.268Z,10.80
2017-10-16T05:12:49.022Z,10.70
2017-10-16T05:15:16.596Z,10.50
2017-10-16T05:17:44.192Z,10.40
2017-10-16T05:20:11.807Z,10.30
2017-10-16T05:22:39.421Z,10.30
2017-10-16T05:25:07.000Z,10.30
2017-10-16T05:27:34.615Z,10.30
2017-10-16T05:30:02.949Z,10.20
2017-10-16T05:32:30.523Z,10.20
2017-10-16T05:34:58.119Z,10.30
2017-10-16T05:37:26.466Z,10.20
2017-10-16T05:39:54.079Z,10.20
2017-10-16T05:42:21.655Z,10.30
2017-10-16T05:44:49.303Z,10.20
2017-10-16T05:47:16.896Z,10.30
2017-10-16T05:49:44.535Z,10.50
2017-10-16T05:52:12.113Z,10.60
2017-10-16T05:54:39.827Z,10.40
2017-10-16T05:57:07.444Z,10.40
2017-10-16T05:59:35.028Z,10.40
2017-10-16T06:02:03.428Z,10.40
2017-10-16T06:04:31.032Z,10.30
2017-10-16T06:06:58.656Z,10.50
2017-10-16T06:09:26.343Z,10.60
2017-10-16T06:11:53.939Z,10.70
2017-10-16T06:14:22.279Z,10.60
2017-10-16T06:16:49.887Z,10.60
2017-10-16T06:19:18.252Z,10.70
2017-10-16T06:21:46.592Z,10.80
2017-10-16T06:24:14.187Z,10.80
2017-10-16T06:26:42.562Z,10.80
2017-10-16T06:29:10.919Z,10.90
2017-10-16T06:31:38.508Z,10.80
2017-10-16T06:34:06.872Z,11.10
2017-10-16T06:36:34.434Z,11.10
2017-10-16T06:39:02.801Z,11.10
2017-10-16T06:41:30.463Z,11.10
2017-10-16T06:43:58.059Z,11.20
2017-10-16T06:46:25.629Z,11.30
2017-10-16T06:48:53.239Z,11.60
2017-10-16T06:51:20.833Z,11.60
2017-10-16T06:53:48.427Z,11.60
2017-10-16T06:56:15.999Z,11.60
2017-10-16T06:58:43.587Z,11.70
2017-10-16T07:01:11.924Z,11.70
2017-10-16T07:03:39.515Z,11.70
2017-10-16T07:06:07.083Z,11.70
2017-10-16T07:08:35.440Z,11.90
2017-10-16T07:11:03.038Z,11.90
2017-10-16T07:13:30.599Z,12.00
2017-10-16T07:15:58.208Z,12.10
2017-10-16T07:18:25.804Z,12.50
2017-10-16T07:20:54.151Z,12.90
2017-10-16T07:23:21.716Z,12.80
2017-10-16T07:25:49.484Z,12.90
2017-10-16T07:28:17.083Z,12.70
2017-10-16T07:30:44.659Z,13.10
2017-10-16T07:33:12.224Z,13.40
2017-10-16T07:35:39.856Z,13.10
2017-10-16T07:38:07.538Z,13.00
2017-10-16T07:40:35.133Z,13.00
2017-10-16T07:43:02.744Z,13.40
2017-10-16T07:45:30.355Z,13.20
2017-10-16T07:47:57.922Z,13.20
2017-10-16T07:50:26.267Z,13.20
2017-10-16T07:52:53.862Z,13.20
2017-10-16T07:55:22.256Z,13.20
2017-10-16T07:57:49.891Z,13.20
2017-10-16T08:00:17.460Z,13.20
2017-10-16T08:02:45.852Z,13.40
2017-10-16T08:05:13.448Z,13.40
2017-10-16T08:07:41.032Z,13.50
2017-10-16T08:10:08.631Z,13.60
2017-10-16T08:12:36.200Z,13.70
2017-10-16T08:15:03.772Z,14.20
2017-10-16T08:17:31.357Z,14.20
2017-10-16T08:19:58.926Z,14.30
2017-10-16T08:22:26.503Z,14.30
2017-10-16T08:24:54.956Z,14.20
2017-10-16T08:27:22.531Z,14.20
2017-10-16T08:29:50.140Z,14.30
2017-10-16T08:32:17.705Z,14.70
2017-10-16T08:34:45.287Z,14.60
2017-10-16T08:37:12.859Z,14.90
2017-10-16T08:39:41.214Z,14.90
2017-10-16T08:42:08.778Z,14.90
2017-10-16T08:44:36.348Z,14.90
2017-10-16T08:47:03.948Z,14.90
2017-10-16T08:49:31.513Z,14.80
2017-10-16T08:51:59.108Z,14.80
2017-10-16T08:54:26.671Z,15.00
2017-10-16T08:56:54.347Z,15.30
2017-10-16T08:59:21.917Z,15.50
2017-10-16T09:01:49.521Z,15.80
2017-10-16T09:04:17.092Z,16.20
2017-10-16T09:06:44.712Z,16.00
2017-10-16T09:09:13.071Z,16.50
2017-10-16T09:11:40.643Z,16.40
2017-10-16T09:14:09.019Z,16.80
2017-10-16T09:16:37.352Z,17.40
2017-10-16T09:19:04.957Z,17.40
2017-10-16T09:21:33.324Z,18.90
2017-10-16T09:24:01.663Z,18.90
2017-10-16T09:26:29.248Z,18.80
2017-10-16T09:28:56.827Z,18.90
2017-10-16T09:31:25.191Z,20.30
2017-10-16T09:33:52.811Z,20.20
2017-10-16T09:36:20.483Z,20.30
2017-10-16T09:38:48.094Z,19.70
2017-10-16T09:41:15.676Z,19.30
2017-10-16T09:43:43.263Z,19.50
2017-10-16T09:46:10.854Z,19.80
2017-10-16T09:48:39.241Z,24.10
2017-10-16T09:51:07.572Z,23.30
2017-10-16T09:53:35.160Z,23.30
2017-10-16T09:56:03.527Z,20.70
2017-10-16T09:58:31.094Z,20.60
2017-10-16T10:00:59.452Z,21.00
2017-10-16T10:03:27.016Z,20.90
2017-10-16T10:05:54.613Z,21.30
2017-10-16T10:08:22.212Z,20.60
2017-10-16T10:10:49.783Z,21.00
2017-10-16T10:13:17.438Z,21.30
2017-10-16T10:15:45.006Z,22.20
2017-10-16T10:18:13.393Z,22.90
2017-10-16T10:20:40.999Z,22.80
2017-10-16T10:23:08.594Z,22.00
2017-10-16T10:25:36.192Z,22.40
2017-10-16T10:28:04.544Z,22.90
2017-10-16T10:30:32.238Z,22.90
2017-10-16T10:32:59.844Z,23.20
2017-10-16T10:35:27.443Z,23.00
2017-10-16T10:37:55.806Z,24.50
2017-10-16T10:40:23.510Z,24.40
2017-10-16T10:42:51.081Z,22.90
2017-10-16T10:45:18.642Z,22.70
2017-10-16T10:47:46.239Z,21.90
2017-10-16T10:50:13.904Z,22.10
2017-10-16T10:52:41.500Z,22.70
2017-10-16T10:55:09.088Z,22.90
2017-10-16T10:57:36.749Z,22.90
2017-10-16T11:00:04.368Z,23.30
2017-10-16T11:02:31.999Z,23.30
2017-10-16T11:04:59.559Z,24.00
2017-10-16T11:07:27.160Z,23.90
2017-10-16T11:09:54.731Z,24.80
2017-10-16T11:12:22.330Z,25.50
2017-10-16T11:14:49.903Z,26.30
2017-10-16T11:17:18.320Z,26.20
2017-10-16T11:19:45.896Z,26.10
2017-10-16T11:22:13.518Z,27.10
2017-10-16T11:24:41.116Z,26.10
2017-10-16T11:27:08.722Z,25.90
2017-10-16T11:29:37.076Z,28.40
2017-10-16T11:32:06.150Z,27.30
2017-10-16T11:34:33.738Z,27.30
2017-10-16T11:37:02.067Z,26.10
2017-10-16T11:39:29.664Z,25.90
2017-10-16T11:41:57.254Z,27.00
2017-10-16T11:44:24.962Z,25.70
2017-10-16T11:46:52.562Z,25.80
2017-10-16T11:49:20.919Z,25.20
2017-10-16T11:51:48.522Z,25.20
2017-10-16T11:54:16.151Z,25.50
2017-10-16T11:56:44.494Z,25.00
2017-10-16T11:59:12.087Z,25.00
2017-10-16T12:01:39.672Z,24.40
2017-10-16T12:04:07.325Z,25.00
2017-10-16T12:06:35.748Z,24.50
2017-10-16T12:09:03.328Z,24.40
2017-10-16T12:11:30.916Z,24.30
2017-10-16T12:13:59.312Z,24.30
2017-10-16T12:16:27.040Z,24.30
2017-10-16T12:18:55.438Z,25.30
2017-10-16T12:21:23.907Z,25.30
2017-10-16T12:23:52.243Z,25.60
2017-10-16T12:26:19.885Z,25.60
2017-10-16T12:28:47.491Z,25.00
2017-10-16T12:31:15.065Z,24.50
2017-10-16T12:33:43.436Z,25.00
2017-10-16T12:36:11.776Z,24.30
2017-10-16T12:38:39.425Z,24.30
2017-10-16T12:41:07.128Z,24.90
2017-10-16T12:43:35.492Z,23.50
2017-10-16T12:46:03.111Z,23.40
2017-10-16T12:48:30.737Z,23.50
2017-10-16T12:50:59.071Z,24.30
2017-10-16T12:53:26.720Z,24.30
2017-10-16T12:55:54.362Z,24.20
2017-10-16T12:58:21.939Z,23.80
2017-10-16T13:00:49.515Z,24.10
2017-10-16T13:03:17.160Z,23.90
2017-10-16T13:05:44.735Z,23.80
2017-10-16T13:08:12.328Z,24.40
2017-10-16T13:10:40.801Z,24.20
2017-10-16T13:13:09.164Z,23.90
2017-10-16T13:15:36.766Z,23.90
2017-10-16T13:18:04.363Z,23.70
2017-10-16T13:20:31.964Z,24.10
2017-10-16T13:23:00.290Z,24.40
2017-10-16T13:25:27.905Z,24.40
2017-10-16T13:27:55.491Z,24.10
2017-10-16T13:30:23.167Z,24.00
2017-10-16T13:32:50.783Z,24.00
2017-10-16T13:35:18.348Z,23.70
2017-10-16T13:37:45.951Z,23.70
2017-10-16T13:40:13.542Z,23.80
2017-10-16T13:42:41.904Z,23.80
2017-10-16T13:45:09.537Z,23.80
2017-10-16T13:47:37.147Z,23.60
2017-10-16T13:50:05.528Z,23.90
2017-10-16T13:52:33.911Z,23.60
2017-10-16T13:55:01.550Z,23.60
2017-10-16T13:57:30.091Z,23.90
2017-10-16T13:59:57.686Z,23.90
2017-10-16T14:02:26.107Z,24.20
2017-10-16T14:04:53.720Z,24.20
2017-10-16T14:07:22.100Z,24.00
2017-10-16T14:09:51.483Z,23.80
2017-10-16T14:12:19.081Z,23.70
2017-10-16T14:14:47.453Z,23.70
2017-10-16T14:17:15.100Z,23.70
2017-10-16T14:19:43.436Z,23.90
2017-10-16T14:22:11.023Z,23.80
2017-10-16T14:24:38.703Z,24.20
2017-10-16T14:27:07.167Z,24.40
2017-10-16T14:29:34.893Z,24.40
2017-10-16T14:32:02.502Z,24.30
2017-10-16T14:34:33.695Z,24.20
2017-10-16T14:37:01.349Z,24.10
2017-10-16T14:39:28.919Z,24.10
2017-10-16T14:41:56.603Z,24.30
2017-10-16T14:44:24.159Z,24.30
2017-10-16T14:46:51.764Z,24.40
2017-10-16T14:49:19.327Z,24.10
2017-10-16T14:51:46.980Z,24.00
2017-10-16T14:54:14.573Z,23.90
2017-10-16T14:56:42.183Z,24.00
2017-10-16T14:59:10.576Z,23.90
2017-10-16T15:01:38.202Z,23.90
2017-10-16T15:04:05.907Z,23.90
2017-10-16T15:06:33.471Z,24.10
2017-10-16T15:09:01.091Z,24.10
2017-10-16T15:11:29.749Z,24.20
2017-10-16T15:13:57.343Z,24.20
2017-10-16T15:16:25.732Z,23.70
2017-10-16T15:18:53.372Z,23.70
2017-10-16T15:21:21.769Z,23.80
2017-10-16T15:23:49.336Z,23.80
2017-10-16T15:26:16.957Z,24.00
2017-10-16T15:28:44.534Z,24.20
2017-10-16T15:31:12.917Z,23.60
2017-10-16T15:33:41.267Z,23.60
2017-10-16T15:36:08.842Z,23.50
2017-10-16T15:38:37.224Z,24.40
2017-10-16T15:41:05.668Z,24.30
2017-10-16T15:43:33.238Z,24.30
2017-10-16T15:46:00.836Z,24.20
2017-10-16T15:48:28.479Z,24.10
2017-10-16T15:50:57.115Z,24.10
2017-10-16T15:53:24.720Z,24.00
2017-10-16T15:55:53.103Z,23.80
2017-10-16T15:58:21.448Z,23.70
2017-10-16T16:00:49.076Z,23.70
2017-10-16T16:03:16.649Z,23.40
2017-10-16T16:05:44.231Z,23.20
2017-10-16T16:08:11.816Z,22.60
2017-10-16T16:10:40.167Z,22.40
2017-10-16T16:13:07.773Z,22.40
2017-10-16T16:15:35.387Z,22.40
2017-10-16T16:18:03.004Z,22.30
2017-10-16T16:20:30.651Z,22.10
2017-10-16T16:22:58.289Z,22.10
2017-10-16T16:25:26.647Z,22.10
2017-10-16T16:27:54.216Z,22.10
2017-10-16T16:30:22.588Z,21.60
2017-10-16T16:32:50.936Z,21.50
2017-10-16T16:35:18.828Z,21.50
2017-10-16T16:37:46.425Z,21.50
2017-10-16T16:40:14.031Z,21.50
2017-10-16T16:42:41.604Z,21.50
2017-10-16T16:45:09.972Z,21.40
2017-10-16T16:47:37.607Z,21.40
2017-10-16T16:50:05.247Z,21.40
2017-10-16T16:52:32.815Z,21.30
2017-10-16T16:55:00.396Z,21.30
2017-10-16T16:57:28.008Z,21.30
2017-10-16T16:59:55.605Z,21.20
2017-10-16T17:02:23.203Z,21.10
2017-10-16T17:04:51.543Z,20.90
2017-10-16T17:07:19.152Z,20.80
2017-10-16T17:09:46.728Z,20.80
2017-10-16T17:12:14.336Z,20.50
2017-10-16T17:14:41.977Z,20.10
2017-10-16T17:17:09.557Z,19.40
2017-10-16T17:19:37.184Z,18.90
2017-10-16T17:22:04.789Z,18.70
2017-10-16T17:24:33.160Z,19.00
2017-10-16T17:27:00.775Z,19.00
2017-10-16T17:29:28.387Z,19.10
2017-10-16T17:31:56.799Z,19.70
2017-10-16T17:34:24.425Z,19.70
2017-10-16T17:36:52.760Z,19.80
2017-10-16T17:39:20.369Z,19.70
2017-10-16T17:41:48.023Z,19.60
2017-10-16T17:44:16.415Z,19.60
2017-10-16T17:46:44.059Z,19.50
2017-10-16T17:49:12.397Z,19.40
2017-10-16T17:51:39.990Z,19.40
2017-10-16T17:54:08.374Z,18.60
2017-10-16T17:56:36.828Z,18.10
2017-10-16T17:59:04.453Z,18.10
2017-10-16T18:01:32.092Z,18.00
2017-10-16T18:03:59.680Z,17.90
2017-10-16T18:06:27.292Z,18.40
2017-10-16T18:08:55.644Z,17.70
2017-10-16T18:11:23.249Z,17.70
2017-10-16T18:13:50.938Z,17.80
2017-10-16T18:16:18.628Z,17.60
2017-10-16T18:18:46.209Z,17.40
2017-10-16T18:21:14.560Z,17.50
2017-10-16T18:23:42.155Z,17.50
2017-10-16T18:26:09.747Z,17.20
2017-10-16T18:28:37.374Z,16.90
2017-10-16T18:31:04.941Z,16.60
2017-10-16T18:33:32.572Z,16.80
2017-10-16T18:36:00.922Z,16.60
2017-10-16T18:38:28.500Z,16.60
2017-10-16T18:40:56.110Z,16.60
2017-10-16T18:43:23.704Z,16.70
2017-10-16T18:45:52.072Z,16.40
2017-10-16T18:48:19.651Z,16.40
2017-10-16T18:50:47.282Z,16.40
2017-10-16T18:53:14.867Z,16.20
2017-10-16T18:55:42.488Z,16.00
2017-10-16T18:58:10.082Z,15.90
2017-10-16T19:00:37.912Z,16.20
2017-10-16T19:03:05.505Z,16.50
2017-10-16T19:05:33.109Z,16.20
2017-10-16T19:08:00.743Z,16.00
2017-10-16T19:10:29.090Z,15.80
2017-10-16T19:12:56.894Z,15.80
2017-10-16T19:15:25.260Z,15.90
2017-10-16T19:17:53.593Z,15.90
2017-10-16T19:20:21.212Z,15.90
2017-10-16T19:22:48.804Z,15.80
2017-10-16T19:25:16.450Z,15.70
2017-10-16T19:27:44.038Z,15.70
2017-10-16T19:30:11.789Z,15.60
2017-10-16T19:32:39.389Z,15.60
2017-10-16T19:35:07.025Z,15.50
2017-10-16T19:37:34.640Z,15.40
2017-10-16T19:40:02.255Z,15.60
2017-10-16T19:42:29.869Z,15.70
2017-10-16T19:44:57.454Z,15.50
2017-10-16T19:47:25.096Z,15.30
2017-10-16T19:49:52.706Z,15.40
2017-10-16T19:52:21.229Z,15.50
2017-10-16T19:54:48.926Z,15.50
2017-10-16T19:57:18.040Z,15.50
2017-10-16T19:59:46.419Z,15.70
2017-10-16T20:02:14.869Z,15.80
2017-10-16T20:04:42.515Z,15.70
2017-10-16T20:07:10.110Z,15.50
2017-10-16T20:09:37.710Z,15.40
2017-10-16T20:12:05.308Z,15.40
2017-10-16T20:14:32.939Z,15.20
2017-10-16T20:17:00.528Z,15.00
2017-10-16T20:19:28.124Z,15.10
2017-10-16T20:21:56.517Z,15.40
2017-10-16T20:24:24.220Z,15.40
2017-10-16T20:26:51.869Z,15.50
2017-10-16T20:29:19.449Z,15.10
2017-10-16T20:31:47.060Z,15.00
2017-10-16T20:34:14.637Z,15.10
2017-10-16T20:36:42.239Z,15.10
2017-10-16T20:39:11.403Z,15.00
2017-10-16T20:41:39.016Z,15.00
2017-10-16T20:44:07.396Z,14.90
2017-10-16T20:46:35.004Z,14.90
2017-10-16T20:49:02.690Z,14.70
2017-10-16T20:51:30.296Z,14.50
2017-10-16T20:53:57.910Z,14.50
2017-10-16T20:56:25.499Z,14.60
2017-10-16T20:58:53.075Z,14.70
2017-10-16T21:01:20.677Z,14.80
2017-10-16T21:03:48.263Z,15.00
2017-10-16T21:06:16.633Z,14.90
2017-10-16T21:08:45.027Z,14.70
2017-10-16T21:11:12.607Z,14.70
2017-10-16T21:13:40.199Z,14.50
2017-10-16T21:16:07.792Z,14.60
2017-10-16T21:18:36.202Z,14.50
2017-10-16T21:21:03.883Z,14.40
2017-10-16T21:23:31.465Z,14.60
2017-10-16T21:25:59.119Z,14.50
2017-10-16T21:28:26.720Z,14.40
2017-10-16T21:30:54.384Z,14.10
2017-10-16T21:33:21.974Z,14.00
2017-10-16T21:35:49.614Z,14.00
2017-10-16T21:38:17.212Z,14.10
2017-10-16T21:40:44.892Z,14.00
2017-10-16T21:43:13.269Z,14.10
2017-10-16T21:45:40.832Z,14.10
2017-10-16T21:48:09.204Z,14.20
2017-10-16T21:50:36.769Z,14.20
2017-10-16T21:53:04.369Z,14.00
2017-10-16T21:55:31.942Z,14.00
2017-10-16T21:57:59.636Z,13.80
2017-10-16T22:00:27.335Z,13.80
2017-10-16T22:02:54.951Z,13.90
2017-10-16T22:05:22.536Z,13.90
2017-10-16T22:07:50.891Z,13.70
2017-10-16T22:10:18.474Z,13.60
2017-10-16T22:12:46.831Z,13.70
2017-10-16T22:15:14.504Z,13.70
2017-10-16T22:17:42.877Z,14.10
2017-10-16T22:20:11.234Z,14.10
2017-10-16T22:22:39.760Z,14.10
2017-10-16T22:25:07.359Z,14.20
2017-10-16T22:27:34.937Z,14.00
2017-10-16T22:30:02.548Z,13.80
2017-10-16T22:32:30.131Z,13.70
2017-10-16T22:34:57.733Z,13.60
2017-10-16T22:37:26.113Z,13.80
2017-10-16T22:39:54.453Z,13.60
2017-10-16T22:42:22.960Z,13.70
2017-10-16T22:44:51.296Z,13.70
2017-10-16T22:47:30.563Z,13.70
2017-10-16T22:49:58.133Z,13.60
2017-10-16T22:52:26.484Z,13.20
2017-10-16T22:54:55.654Z,13.00
2017-10-16T22:57:23.234Z,13.10
2017-10-16T22:59:50.858Z,13.00
2017-10-16T23:02:18.423Z,13.00
2017-10-16T23:04:46.013Z,13.00
2017-10-16T23:07:13.599Z,13.00
2017-10-16T23:09:42.023Z,13.10
2017-10-16T23:12:09.588Z,13.10
2017-10-16T23:14:37.165Z,13.10
2017-10-16T23:17:04.755Z,13.20
2017-10-16T23:19:33.095Z,13.10
2017-10-16T23:22:00.685Z,13.10
2017-10-16T23:24:29.067Z,13.20
2017-10-16T23:26:57.583Z,13.10
2017-10-16T23:29:25.167Z,13.10
2017-10-16T23:31:52.747Z,13.00
2017-10-16T23:34:21.206Z,12.80
2017-10-16T23:36:48.812Z,12.80
2017-10-16T23:39:17.143Z,12.80
2017-10-16T23:41:44.711Z,12.80
2017-10-16T23:44:12.452Z,12.70
2017-10-16T23:46:40.021Z,12.70
2017-10-16T23:49:07.694Z,12.70
2017-10-16T23:51:35.267Z,12.80
2017-10-16T23:54:02.935Z,12.90
2017-10-16T23:56:31.275Z,12.80
2017-10-16T23:58:58.885Z,12.80
